Time;durP1;ratioP1;P1;durP2;ratioP2;P2;SDS_P1;SDS_P2;PMS_P1;PMS_P2;Temp;Humidity;BMP_temperature;BMP_pressure;BME280_temperature;BME280_humidity;BME280_pressure;Samples;Min_cycle;Max_cycle;Signal;HPM_P1;HPM_P2
2022/09/16 00:01:12;;;;;;;15.27;9.00;;;;;;;21.02;100.00;95736.81;5137925;27;20082;-49
2022/09/16 00:03:41;;;;;;;13.77;9.30;;;;;;;21.09;100.00;95736.72;5144331;27;20085;-51
2022/09/16 00:06:18;;;;;;;11.93;9.43;;;;;;;21.50;100.00;95732.41;5140153;27;20071;-47
2022/09/16 00:08:47;;;;;;;11.93;8.98;;;;;;;21.16;100.00;95733.94;5140339;27;20090;-51
2022/09/16 00:11:16;;;;;;;13.73;9.23;;;;;;;21.26;100.00;95734.19;5139454;27;20572;-52
2022/09/16 00:13:45;;;;;;;13.80;9.20;;;;;;;21.68;100.00;95729.66;5140165;27;20078;-51
2022/09/16 00:16:17;;;;;;;12.80;9.23;;;;;;;21.77;100.00;95730.91;5142089;27;20578;-49
2022/09/16 00:18:45;;;;;;;11.88;9.15;;;;;;;21.72;100.00;95725.44;5142862;27;20583;-48
2022/09/16 00:21:13;;;;;;;13.05;9.05;;;;;;;21.95;100.00;95716.56;5144488;27;20094;-49
2022/09/16 00:23:43;;;;;;;13.88;9.05;;;;;;;21.70;100.00;95718.66;5143383;27;20078;-54
2022/09/16 00:26:11;;;;;;;13.77;9.03;;;;;;;21.90;100.00;95718.34;5144215;27;20077;-50
2022/09/16 00:28:40;;;;;;;12.95;9.43;;;;;;;21.84;100.00;95717.38;5138477;27;20066;-48
2022/09/16 00:31:08;;;;;;;11.43;9.05;;;;;;;21.41;100.00;95721.22;5146323;27;20070;-47
2022/09/16 00:33:37;;;;;;;10.50;8.63;;;;;;;22.15;100.00;95712.72;5144692;27;20076;-50
2022/09/16 00:36:07;;;;;;;11.48;8.70;;;;;;;21.87;100.00;95716.91;5143696;27;20082;-50
2022/09/16 00:38:36;;;;;;;;;;;;;;;21.99;100.00;95711.56;5145990;27;20085;-51
2022/09/16 00:41:06;;;;;;;11.88;8.23;;;;;;;21.99;100.00;95714.25;5143633;27;19969;-51
2022/09/16 00:43:48;;;;;;;12.90;8.10;;;;;;;22.03;100.00;95708.16;5139899;27;20081;-48
2022/09/16 00:46:18;;;;;;;14.52;8.43;;;;;;;21.52;100.00;95717.72;5139832;27;20085;-47
2022/09/16 00:48:47;;;;;;;10.20;8.15;;;;;;;21.30;100.00;95713.91;5144356;27;20080;-51
2022/09/16 00:51:16;;;;;;;14.73;8.18;;;;;;;21.72;100.00;95716.59;5140807;27;20078;-47
2022/09/16 00:53:48;;;;;;;9.85;8.10;;;;;;;21.56;100.00;95713.53;5139717;27;20104;-51
2022/09/16 00:56:21;;;;;;;13.63;7.88;;;;;;;21.75;100.00;95716.94;5145622;27;20077;-48
2022/09/16 00:58:52;;;;;;;10.23;8.20;;;;;;;21.91;100.00;95726.13;5141975;27;20070;-47
2022/09/16 01:01:21;;;;;;;;;;;;;;;22.14;100.00;95719.13;5142470;27;20093;-51
2022/09/16 01:03:53;;;;;;;10.80;7.82;;;;;;;22.02;100.00;95728.03;5140209;27;20400;-49
2022/09/16 01:06:24;;;;;;;11.52;7.97;;;;;;;22.27;100.00;95719.72;5138226;27;20082;-50
2022/09/16 01:08:52;;;;;;;;;;;;;;;22.33;100.00;95709.88;5143175;27;20592;-51
2022/09/16 01:11:22;;;;;;;13.27;7.90;;;;;;;21.93;100.00;95721.38;5141902;27;19970;-51
2022/09/16 01:13:51;;;;;;;10.77;7.80;;;;;;;21.92;100.00;95718.91;5142541;27;20516;-54
2022/09/16 01:16:23;;;;;;;10.57;7.78;;;;;;;21.78;100.00;95721.84;5135349;27;20484;-53
2022/09/16 01:18:58;;;;;;;10.23;8.32;;;;;;;22.29;100.00;95714.09;5145760;27;20086;-55
2022/09/16 01:21:37;;;;;;;14.35;8.10;;;;;;;22.61;100.00;95710.97;5145975;27;20112;-51
2022/09/16 01:24:47;;;;;;;11.52;7.80;;;;;;;22.67;100.00;95710.03;5144533;27;20571;-50
2022/09/16 01:27:43;;;;;;;10.50;8.25;;;;;;;22.31;100.00;95709.31;5117222;27;20087;-52
2022/09/16 01:30:39;;;;;;;11.27;7.47;;;;;;;22.31;100.00;95705.81;5138965;27;20433;-50
2022/09/16 01:33:16;;;;;;;9.75;7.57;;;;;;;22.24;100.00;95700.59;5144719;27;20528;-50
2022/09/16 01:35:55;;;;;;;9.45;7.55;;;;;;;21.79;100.00;95711.91;5142737;27;20139;-54
2022/09/16 01:38:35;;;;;;;11.75;7.45;;;;;;;21.98;100.00;95699.97;5144316;27;20078;-53
2022/09/16 01:41:07;;;;;;;9.60;7.32;;;;;;;21.83;100.00;95704.22;5144986;27;20078;-52
2022/09/16 01:43:43;;;;;;;9.05;7.55;;;;;;;21.83;100.00;95705.03;5148207;27;20082;-51
2022/09/16 01:46:19;;;;;;;10.80;7.40;;;;;;;22.00;100.00;95700.56;5145273;27;20080;-55
2022/09/16 01:48:54;;;;;;;10.50;7.35;;;;;;;21.98;100.00;95702.66;5147497;27;20066;-53
2022/09/16 01:51:26;;;;;;;9.77;7.45;;;;;;;22.65;100.00;95701.41;5140950;27;20115;-51
2022/09/16 01:54:02;;;;;;;9.38;7.30;;;;;;;22.71;100.00;95697.75;5144899;27;20065;-49
2022/09/16 01:56:36;;;;;;;10.35;7.63;;;;;;;22.61;100.00;95695.69;5142121;27;20082;-53
2022/09/16 01:59:08;;;;;;;8.55;7.20;;;;;;;22.41;100.00;95701.47;5137579;27;20103;-51
2022/09/16 02:01:39;;;;;;;9.23;7.63;;;;;;;22.41;100.00;95698.78;5146006;27;20075;-49
2022/09/16 02:04:13;;;;;;;12.68;7.97;;;;;;;22.54;100.00;95702.25;5146909;27;20073;-47
2022/09/16 02:06:44;;;;;;;8.98;7.50;;;;;;;22.57;100.00;95699.91;5137599;27;20091;-47
2022/09/16 02:09:17;;;;;;;10.02;7.25;;;;;;;22.17;100.00;95697.22;5137959;27;20089;-48
2022/09/16 02:11:47;;;;;;;8.45;7.43;;;;;;;22.05;100.00;95698.00;5142040;27;20077;-55
2022/09/16 02:14:18;;;;;;;8.75;7.80;;;;;;;21.95;100.00;95691.59;5137433;27;20073;-52
2022/09/16 02:16:50;;;;;;;11.77;7.80;;;;;;;21.88;100.00;95701.63;5140964;27;20086;-54
2022/09/16 02:19:23;;;;;;;9.30;7.43;;;;;;;22.27;100.00;95703.59;5129854;27;20082;-50
2022/09/16 02:21:52;;;;;;;9.20;7.28;;;;;;;21.93;100.00;95696.38;5139833;27;20082;-51
2022/09/16 02:24:22;;;;;;;10.77;7.40;;;;;;;21.66;100.00;95704.09;5140194;27;20070;-52
2022/09/16 02:26:54;;;;;;;11.40;7.72;;;;;;;21.67;100.00;95703.84;5139074;27;20074;-48
2022/09/16 02:29:26;;;;;;;7.68;6.68;;;;;;;21.01;100.00;95711.03;5136126;27;20543;-50
2022/09/16 02:31:58;;;;;;;8.27;7.03;;;;;;;21.25;100.00;95695.03;5143639;27;21027;-53
2022/09/16 02:34:32;;;;;;;8.25;7.10;;;;;;;21.70;100.00;95694.53;5141682;27;20043;-50
2022/09/16 02:37:04;;;;;;;8.75;6.63;;;;;;;21.49;100.00;95701.28;5145442;27;20484;-49
2022/09/16 02:39:36;;;;;;;10.15;6.70;;;;;;;21.18;100.00;95700.50;5139252;27;20066;-52
2022/09/16 02:42:05;;;;;;;8.93;7.40;;;;;;;21.39;100.00;95695.66;5133445;27;20069;-50
2022/09/16 02:44:34;;;;;;;10.65;7.35;;;;;;;21.36;100.00;95694.25;5142540;27;20071;-49
2022/09/16 02:47:09;;;;;;;9.10;7.00;;;;;;;20.76;100.00;95705.84;5144163;27;20078;-47
2022/09/16 02:49:43;;;;;;;10.55;6.60;;;;;;;22.13;100.00;95688.78;5150450;27;20074;-48
2022/09/16 02:52:16;;;;;;;10.98;6.53;;;;;;;21.52;100.00;95688.22;5129639;27;20078;-54
2022/09/16 02:54:50;;;;;;;8.88;6.75;;;;;;;20.68;100.00;95705.31;5130245;27;20081;-49
2022/09/16 02:57:19;;;;;;;8.90;6.70;;;;;;;21.34;100.00;95693.69;5130681;27;20075;-52
2022/09/16 02:59:47;;;;;;;9.05;7.05;;;;;;;21.16;100.00;95696.41;5146005;27;20077;-48
2022/09/16 03:02:15;;;;;;;8.25;6.88;;;;;;;21.17;100.00;95692.69;5139831;27;20074;-50
2022/09/16 03:04:45;;;;;;;10.30;7.13;;;;;;;21.17;100.00;95695.38;5139877;27;20457;-50
2022/09/16 03:07:15;;;;;;;9.68;6.70;;;;;;;20.93;100.00;95687.25;5148086;27;20082;-53
2022/09/16 03:09:45;;;;;;;10.73;7.37;;;;;;;21.09;100.00;95689.28;5147543;27;20067;-46
2022/09/16 03:12:23;;;;;;;9.32;6.95;;;;;;;21.16;100.00;95685.66;5137653;27;20086;-48
2022/09/16 03:15:30;;;;;;;8.95;6.35;;;;;;;21.27;100.00;95676.84;5133276;27;20078;-53
2022/09/16 03:18:17;;;;;;;7.53;6.53;;;;;;;21.13;100.00;95675.41;5130957;27;20546;-52
2022/09/16 03:20:52;;;;;;;11.73;6.55;;;;;;;21.06;100.00;95679.03;5142378;27;20082;-51
2022/09/16 03:23:27;;;;;;;8.52;6.80;;;;;;;20.95;100.00;95682.47;5138307;27;20063;-54
2022/09/16 03:25:59;;;;;;;9.38;6.70;;;;;;;20.65;100.00;95681.66;5137672;27;20087;-50
2022/09/16 03:28:33;;;;;;;10.18;7.13;;;;;;;20.76;100.00;95679.03;5143074;27;20078;-51
2022/09/16 03:31:06;;;;;;;10.60;6.75;;;;;;;20.54;100.00;95678.72;5133211;27;20108;-48
2022/09/16 03:33:39;;;;;;;10.77;7.53;;;;;;;20.79;100.00;95678.59;5144636;27;20070;-47
2022/09/16 03:36:14;;;;;;;12.07;6.82;;;;;;;20.52;100.00;95677.31;5141816;27;20082;-48
2022/09/16 03:38:43;;;;;;;9.00;7.10;;;;;;;20.82;100.00;95669.28;5139790;27;20475;-49
2022/09/16 03:41:12;;;;;;;8.52;7.15;;;;;;;20.76;100.00;95667.50;5142377;27;20194;-53
2022/09/16 03:43:41;;;;;;;9.60;7.25;;;;;;;20.63;100.00;95665.81;5141831;27;20099;-49
2022/09/16 03:46:11;;;;;;;12.43;8.10;;;;;;;21.02;100.00;95663.59;5136625;27;20113;-52
2022/09/16 03:48:39;;;;;;;9.73;7.32;;;;;;;20.74;100.00;95664.22;5136925;27;20067;-53
2022/09/16 03:51:09;;;;;;;11.68;7.53;;;;;;;20.95;100.00;95665.56;5141636;27;20078;-49
2022/09/16 03:53:37;;;;;;;9.57;7.20;;;;;;;20.51;100.00;95665.78;5148980;27;20517;-50
2022/09/16 03:56:06;;;;;;;11.70;8.05;;;;;;;20.73;100.00;95662.59;5143816;27;20525;-53
2022/09/16 03:58:34;;;;;;;12.40;7.95;;;;;;;20.52;100.00;95671.97;5143425;27;20103;-53
2022/09/16 04:01:03;;;;;;;11.50;8.20;;;;;;;20.68;100.00;95660.63;5147473;27;20070;-50
2022/09/16 04:03:32;;;;;;;13.52;8.35;;;;;;;20.49;100.00;95659.00;5146639;27;20440;-47
2022/09/16 04:06:00;;;;;;;13.13;9.40;;;;;;;20.39;100.00;95667.56;5136657;27;20086;-50
2022/09/16 04:08:30;;;;;;;12.60;9.80;;;;;;;20.60;100.00;95659.06;5138124;27;20083;-52
2022/09/16 04:11:00;;;;;;;13.13;9.17;;;;;;;20.25;100.00;95666.09;5136839;27;20093;-49
2022/09/16 04:13:30;;;;;;;15.10;8.68;;;;;;;20.43;100.00;95673.28;5141015;27;20476;-50
2022/09/16 04:15:58;;;;;;;12.80;9.73;;;;;;;20.28;100.00;95661.09;5134788;27;20074;-54
2022/09/16 04:18:27;;;;;;;13.65;9.93;;;;;;;20.45;100.00;95669.34;5135270;27;20086;-48
2022/09/16 04:20:57;;;;;;;14.68;10.25;;;;;;;20.38;100.00;95674.78;5141360;27;20086;-55
2022/09/16 04:23:25;;;;;;;13.65;9.38;;;;;;;19.41;100.00;95679.09;5139352;27;20090;-50
2022/09/16 04:25:56;;;;;;;12.55;9.65;;;;;;;20.08;100.00;95668.56;5137805;27;20079;-49
2022/09/16 04:28:24;;;;;;;14.75;10.40;;;;;;;20.49;100.00;95675.88;5137984;27;20067;-50
2022/09/16 04:30:53;;;;;;;18.67;10.85;;;;;;;20.18;100.00;95676.06;5135303;27;20078;-52
2022/09/16 04:33:22;;;;;;;14.68;10.23;;;;;;;20.75;100.00;95671.22;5140828;27;20080;-49
2022/09/16 04:35:50;;;;;;;14.63;10.55;;;;;;;20.05;100.00;95674.34;5140116;27;20074;-52
2022/09/16 04:38:18;;;;;;;15.27;10.82;;;;;;;20.11;100.00;95671.59;5139690;27;20279;-52
2022/09/16 04:40:47;;;;;;;15.95;10.30;;;;;;;20.40;100.00;95679.88;5146465;27;20081;-54
2022/09/16 04:43:16;;;;;;;14.52;10.07;;;;;;;20.81;100.00;95668.44;5143952;27;20595;-51
2022/09/16 04:45:45;;;;;;;12.55;10.48;;;;;;;20.76;100.00;95673.69;5152654;27;20091;-54
2022/09/16 04:48:13;;;;;;;16.90;10.35;;;;;;;20.54;100.00;95681.41;5138788;27;20094;-52
2022/09/16 04:50:42;;;;;;;12.95;10.43;;;;;;;20.33;100.00;95687.19;5138346;27;20452;-53
2022/09/16 04:53:10;;;;;;;14.98;10.38;;;;;;;20.60;100.00;95696.56;5141748;27;20069;-49
2022/09/16 04:55:39;;;;;;;15.85;11.00;;;;;;;20.54;100.00;95702.84;5148754;27;20535;-52
2022/09/16 04:58:07;;;;;;;15.60;11.30;;;;;;;20.85;100.00;95692.94;5143061;27;20071;-50
2022/09/16 05:00:37;;;;;;;13.85;11.18;;;;;;;21.08;100.00;95693.00;5141079;27;20521;-52
2022/09/16 05:03:05;;;;;;;14.73;11.27;;;;;;;20.76;100.00;95691.63;5138845;27;20465;-51
2022/09/16 05:05:34;;;;;;;16.98;11.18;;;;;;;20.96;100.00;95700.22;5153502;27;20086;-54
2022/09/16 05:08:02;;;;;;;17.70;11.02;;;;;;;20.96;100.00;95702.88;5144962;27;20082;-50
2022/09/16 05:10:37;;;;;;;15.35;11.00;;;;;;;21.25;100.00;95692.34;5149934;27;20063;-54
2022/09/16 05:13:06;;;;;;;14.63;10.73;;;;;;;21.33;100.00;95700.03;5147179;27;20053;-54
2022/09/16 05:15:37;;;;;;;17.98;11.30;;;;;;;21.25;100.00;95701.19;5150805;27;20047;-49
2022/09/16 05:18:06;;;;;;;14.88;10.77;;;;;;;21.00;100.00;95696.03;5147686;27;20432;-54
2022/09/16 05:20:35;;;;;;;15.75;10.82;;;;;;;21.44;100.00;95696.63;5146828;27;20093;-53
2022/09/16 05:23:04;;;;;;;15.90;11.52;;;;;;;21.32;100.00;95688.50;5144031;27;20482;-54
2022/09/16 05:25:33;;;;;;;14.70;10.45;;;;;;;21.48;100.00;95697.78;5150475;27;20092;-52
2022/09/16 05:28:02;;;;;;;14.07;11.20;;;;;;;21.02;100.00;95703.81;5132338;27;20078;-54
2022/09/16 05:30:30;;;;;;;14.48;11.82;;;;;;;20.05;100.00;95704.59;5134016;27;20450;-51
2022/09/16 05:33:00;;;;;;;15.50;11.40;;;;;;;20.78;100.00;95694.88;5140579;27;20058;-54
2022/09/16 05:35:28;;;;;;;13.67;10.97;;;;;;;20.86;100.00;95695.41;5151568;27;20080;-51
2022/09/16 05:37:57;;;;;;;15.65;10.88;;;;;;;20.93;100.00;95700.66;5143071;27;20455;-50
2022/09/16 05:40:26;;;;;;;14.57;10.80;;;;;;;21.08;100.00;95695.69;5138180;27;20556;-49
2022/09/16 05:42:55;;;;;;;14.48;10.55;;;;;;;21.07;100.00;95696.72;5137401;27;20460;-53
2022/09/16 05:45:23;;;;;;;14.85;10.85;;;;;;;21.07;100.00;95696.72;5142033;27;20058;-49
2022/09/16 05:48:00;;;;;;;16.08;10.82;;;;;;;21.16;100.00;95704.44;5139669;27;20531;-50
2022/09/16 05:50:28;;;;;;;14.52;11.10;;;;;;;21.14;100.00;95704.69;5143145;27;20090;-51
2022/09/16 05:52:56;;;;;;;17.67;10.85;;;;;;;21.02;100.00;95690.41;5130562;27;20082;-48
2022/09/16 05:55:25;;;;;;;15.23;11.23;;;;;;;21.47;100.00;95688.09;5146167;27;20078;-52
2022/09/16 05:57:54;;;;;;;15.20;10.95;;;;;;;21.07;100.00;95696.72;5150483;27;20081;-49
2022/09/16 06:00:22;;;;;;;15.50;11.05;;;;;;;21.48;100.00;95684.38;5148823;27;20074;-50
2022/09/16 06:02:50;;;;;;;14.57;10.82;;;;;;;21.03;100.00;95690.19;5144745;27;20070;-51
2022/09/16 06:05:20;;;;;;;15.90;10.93;;;;;;;21.12;100.00;95693.34;5137219;27;20421;-51
2022/09/16 06:07:49;;;;;;;17.83;10.95;;;;;;;21.28;100.00;95686.53;5137397;27;20066;-49
2022/09/16 06:10:17;;;;;;;14.43;10.38;;;;;;;20.43;100.00;95697.38;5149179;27;20067;-49
2022/09/16 06:12:46;;;;;;;14.15;10.65;;;;;;;20.78;100.00;95684.97;5138933;27;20083;-52
2022/09/16 06:15:31;;;;;;;14.25;10.60;;;;;;;21.24;100.00;95688.03;5143628;27;20074;-47
2022/09/16 06:18:00;;;;;;;16.67;11.35;;;;;;;21.61;100.00;95686.00;5146215;27;20106;-52
2022/09/16 06:20:36;;;;;;;14.13;10.35;;;;;;;21.83;100.00;95683.56;5137118;27;20079;-51
2022/09/16 06:23:04;;;;;;;12.38;10.35;;;;;;;22.09;100.00;95679.53;5136752;27;20085;-55
2022/09/16 06:25:33;;;;;;;15.02;11.05;;;;;;;21.15;100.00;95686.72;5144059;27;20070;-56
2022/09/16 06:28:02;;;;;;;13.88;10.55;;;;;;;21.58;100.00;95685.66;5144071;27;20093;-53
2022/09/16 06:30:30;;;;;;;13.38;10.60;;;;;;;21.95;100.00;95683.53;5150421;27;20082;-52
2022/09/16 06:32:59;;;;;;;16.25;10.20;;;;;;;22.46;100.00;95679.25;5147374;27;20971;-55
2022/09/16 06:35:27;;;;;;;14.85;9.93;;;;;;;22.52;100.00;95687.19;5154257;27;20097;-55
2022/09/16 06:37:58;;;;;;;13.80;10.25;;;;;;;22.54;100.00;95686.13;5144955;27;20105;-53
2022/09/16 06:40:26;;;;;;;;;;;;;;;22.13;100.00;95687.97;5142535;27;20066;-52
2022/09/16 06:42:54;;;;;;;13.88;9.73;;;;;;;21.30;100.00;95687.09;5138799;27;20390;-53
2022/09/16 06:45:28;;;;;;;12.20;9.68;;;;;;;20.97;100.00;95675.03;5143599;27;20087;-51
2022/09/16 06:47:59;;;;;;;16.50;10.52;;;;;;;21.26;100.00;95684.06;5143300;27;20472;-54
2022/09/16 06:50:28;;;;;;;15.15;11.05;;;;;;;20.59;100.00;95686.91;5148908;27;20051;-53
2022/09/16 06:52:58;;;;;;;12.45;10.00;;;;;;;21.61;100.00;95679.81;5136245;27;20117;-53
2022/09/16 06:55:26;;;;;;;14.30;10.13;;;;;;;21.77;100.00;95679.94;5139057;27;20074;-50
2022/09/16 06:57:56;;;;;;;14.05;10.25;;;;;;;21.42;100.00;95676.44;5136720;27;20073;-51
2022/09/16 07:00:25;;;;;;;12.40;9.52;;;;;;;21.47;100.00;95680.06;5137649;27;20043;-52
2022/09/16 07:02:53;;;;;;;14.82;9.70;;;;;;;21.03;100.00;95678.66;5136664;27;20103;-50
2022/09/16 07:05:22;;;;;;;14.70;10.15;;;;;;;21.42;100.00;95676.44;5152322;27;20047;-51
2022/09/16 07:07:51;;;;;;;11.82;9.82;;;;;;;21.66;100.00;95672.69;5141911;27;20397;-50
2022/09/16 07:10:22;;;;;;;14.02;10.25;;;;;;;22.30;100.00;95680.00;5141806;27;20085;-50
2022/09/16 07:12:51;;;;;;;16.00;10.63;;;;;;;22.52;100.00;95679.13;5143347;27;20083;-49
2022/09/16 07:15:20;;;;;;;15.73;10.50;;;;;;;22.49;100.00;95676.09;5143373;27;20528;-52
2022/09/16 07:17:53;;;;;;;15.65;10.55;;;;;;;22.10;100.00;95677.69;5146290;27;20089;-50
2022/09/16 07:20:22;;;;;;;15.82;11.30;;;;;;;21.44;100.00;95677.00;5142525;27;20074;-50
2022/09/16 07:22:52;;;;;;;15.15;10.80;;;;;;;21.83;100.00;95674.69;5137654;27;20085;-51
2022/09/16 07:25:22;;;;;;;;;;;;;;;22.43;100.00;95669.00;5146613;27;20093;-52
2022/09/16 07:27:50;;;;;;;15.68;10.25;;;;;;;22.21;100.00;95672.31;5137856;27;19959;-54
2022/09/16 07:30:18;;;;;;;11.07;9.35;;;;;;;22.06;100.00;95674.66;5149166;27;20082;-50
2022/09/16 07:32:47;;;;;;;16.35;10.57;;;;;;;21.74;100.00;95675.03;5142239;27;20117;-52
2022/09/16 07:35:15;;;;;;;13.70;10.35;;;;;;;22.59;100.00;95668.25;5134647;27;20093;-52
2022/09/16 07:37:44;;;;;;;12.63;10.07;;;;;;;22.18;100.00;95669.28;5139158;27;20071;-47
2022/09/16 07:40:12;;;;;;;14.25;10.18;;;;;;;22.69;100.00;95673.81;5136019;27;20077;-50
2022/09/16 07:42:42;;;;;;;15.05;9.63;;;;;;;22.19;100.00;95676.28;5136321;27;20091;-55
2022/09/16 07:45:11;;;;;;;12.67;9.93;;;;;;;22.35;100.00;95680.13;5135878;27;20488;-52
2022/09/16 07:47:39;;;;;;;15.65;9.75;;;;;;;23.38;100.00;95675.56;5135607;27;20508;-55
2022/09/16 07:50:08;;;;;;;14.20;9.50;;;;;;;24.01;100.00;95677.06;5142686;27;20082;-51
2022/09/16 07:52:37;;;;;;;13.75;9.75;;;;;;;23.34;100.00;95675.25;5129281;27;20473;-50
2022/09/16 07:55:06;;;;;;;13.98;9.45;;;;;;;23.91;100.00;95675.06;5129166;27;20078;-52
2022/09/16 07:57:34;;;;;;;14.23;9.60;;;;;;;24.31;100.00;95678.56;5135836;27;20067;-52
2022/09/16 08:00:05;;;;;;;12.02;9.02;;;;;;;24.27;100.00;95670.16;5138408;27;20081;-50
2022/09/16 08:02:34;;;;;;;16.40;9.23;;;;;;;24.63;100.00;95676.00;5146714;27;20070;-50
2022/09/16 08:05:02;;;;;;;12.27;9.15;;;;;;;24.61;100.00;95665.47;5153402;27;20086;-55
2022/09/16 08:07:30;;;;;;;12.93;9.88;;;;;;;24.74;100.00;95656.19;5145011;27;20083;-52
2022/09/16 08:09:59;;;;;;;12.68;9.32;;;;;;;25.04;100.00;95660.25;5146625;27;20148;-54
2022/09/16 08:12:31;;;;;;;11.93;9.77;;;;;;;24.17;100.00;95672.72;5138737;27;20528;-50
2022/09/16 08:14:59;;;;;;;17.80;10.02;;;;;;;24.17;100.00;95670.84;5135348;27;20518;-51
2022/09/16 08:17:29;;;;;;;11.18;9.23;;;;;;;24.35;100.00;95669.72;5137910;27;20100;-50
2022/09/16 08:20:04;;;;;;;12.85;9.60;;;;;;;23.63;100.00;95669.78;5149396;27;20082;-53
2022/09/16 08:22:34;;;;;;;13.48;10.20;;;;;;;23.11;100.00;95676.19;5143210;27;20070;-46
2022/09/16 08:25:02;;;;;;;14.75;9.57;;;;;;;23.97;100.00;95681.34;5144754;27;20082;-51
2022/09/16 08:27:30;;;;;;;13.77;9.43;;;;;;;24.37;100.00;95682.94;5134646;27;20083;-49
2022/09/16 08:29:59;;;;;;;13.13;9.85;;;;;;;23.99;100.00;95687.31;5142885;27;20528;-54
2022/09/16 08:32:29;;;;;;;14.07;9.18;;;;;;;23.98;100.00;95692.91;5146150;27;20457;-50
2022/09/16 08:34:58;;;;;;;14.05;9.93;;;;;;;23.44;100.00;95694.25;5143592;27;20077;-53
2022/09/16 08:37:26;;;;;;;12.65;9.82;;;;;;;23.53;100.00;95691.94;5141201;27;20098;-53
2022/09/16 08:39:54;;;;;;;11.05;8.88;;;;;;;23.63;100.00;95691.31;5139347;27;20078;-54
2022/09/16 08:42:30;;;;;;;13.45;9.32;;;;;;;24.02;100.00;95683.28;5136077;27;20082;-51
2022/09/16 08:45:08;;;;;;;12.70;9.18;;;;;;;24.24;100.00;95686.00;5146127;27;20090;-53
2022/09/16 08:47:48;;;;;;;14.43;9.57;;;;;;;22.90;100.00;95684.94;5144401;27;20058;-52
2022/09/16 08:50:22;;;;;;;11.48;9.05;;;;;;;23.30;100.00;95690.25;5145105;27;20097;-49
2022/09/16 08:52:51;;;;;;;12.85;9.80;;;;;;;23.66;100.00;95682.75;5141636;27;20082;-52
2022/09/16 08:55:30;;;;;;;13.63;9.57;;;;;;;23.76;100.00;95685.63;5143432;27;20082;-52
2022/09/16 08:58:01;;;;;;;15.98;9.45;;;;;;;23.30;100.00;95692.94;5144156;27;20077;-49
2022/09/16 09:00:31;;;;;;;15.55;10.02;;;;;;;22.80;100.00;95688.25;5151242;27;20077;-51
2022/09/16 09:03:07;;;;;;;13.98;10.98;;;;;;;23.08;100.00;95684.75;5145726;27;20517;-52
2022/09/16 09:05:42;;;;;;;14.65;10.27;;;;;;;23.66;100.00;95675.47;5145701;27;20066;-53
2022/09/16 09:08:21;;;;;;;13.50;11.00;;;;;;;22.61;100.00;95676.88;5132165;27;20082;-51
2022/09/16 09:10:52;;;;;;;12.85;10.38;;;;;;;23.10;100.00;95677.25;5150516;27;20093;-51
2022/09/16 09:13:35;;;;;;;16.30;10.70;;;;;;;23.21;100.00;95683.63;5140541;27;20143;-55
2022/09/16 09:16:08;;;;;;;14.40;10.20;;;;;;;23.57;100.00;95685.03;5136039;27;20117;-51
2022/09/16 09:18:45;;;;;;;13.93;10.07;;;;;;;22.61;100.00;95684.09;5137215;27;20085;-51
2022/09/16 09:21:20;;;;;;;12.15;10.15;;;;;;;22.45;100.00;95680.31;5151880;27;20078;-49
2022/09/16 09:24:21;;;;;;;12.38;10.15;;;;;;;23.53;100.00;95675.00;5140280;27;20089;-51
2022/09/16 09:26:51;;;;;;;16.15;10.57;;;;;;;23.14;100.00;95678.41;5139140;27;20079;-52
2022/09/16 09:29:41;;;;;;;13.23;10.70;;;;;;;23.11;100.00;95673.50;5138001;27;20078;-49
2022/09/16 09:32:14;;;;;;;;;;;;;;;22.62;100.00;95677.69;5129708;27;20089;-48
2022/09/16 09:35:04;;;;;;;17.83;10.32;;;;;;;22.42;100.00;95675.44;5155018;27;19973;-47
2022/09/16 09:37:47;;;;;;;15.13;10.57;;;;;;;22.87;100.00;95666.59;5134998;27;20086;-50
2022/09/16 09:40:19;;;;;;;16.23;11.02;;;;;;;22.82;100.00;95670.03;5145066;27;20078;-51
2022/09/16 09:42:51;;;;;;;16.55;11.13;;;;;;;22.80;100.00;95674.00;5137613;27;20536;-51
2022/09/16 09:45:24;;;;;;;19.15;11.15;;;;;;;21.94;100.00;95671.97;5141676;27;20086;-49
2022/09/16 09:47:57;;;;;;;13.13;9.63;;;;;;;21.98;100.00;95673.13;5141034;27;20093;-53
2022/09/16 09:50:29;;;;;;;15.95;10.98;;;;;;;22.11;100.00;95676.63;5144507;27;20539;-50
2022/09/16 09:53:05;;;;;;;15.25;10.73;;;;;;;22.35;100.00;95670.19;5139197;27;20097;-53
2022/09/16 09:55:35;;;;;;;14.73;9.88;;;;;;;21.90;100.00;95670.00;5145391;27;20090;-51
2022/09/16 09:58:16;;;;;;;14.85;10.38;;;;;;;21.68;100.00;95677.81;5145648;27;20466;-52
2022/09/16 10:00:44;;;;;;;;;;;;;;;22.39;100.00;95671.34;5138224;27;20477;-49
2022/09/16 10:03:15;;;;;;;14.90;9.05;;;;;;;22.34;100.00;95668.56;5143412;27;19946;-51
2022/09/16 10:05:46;;;;;;;15.55;9.05;;;;;;;22.23;100.00;95672.91;5149308;27;20078;-53
2022/09/16 10:08:21;;;;;;;15.52;9.40;;;;;;;21.59;100.00;95673.88;5139130;27;20078;-52
2022/09/16 10:10:51;;;;;;;15.90;9.98;;;;;;;21.48;100.00;95673.63;5140498;27;20070;-51
2022/09/16 10:13:20;;;;;;;13.40;9.63;;;;;;;21.30;100.00;95674.53;5138140;27;20088;-53
2022/09/16 10:15:50;;;;;;;15.45;10.88;;;;;;;21.71;100.00;95677.34;5138479;27;20074;-51
2022/09/16 10:18:28;;;;;;;14.32;9.95;;;;;;;21.63;100.00;95670.47;5144039;27;20074;-52
2022/09/16 10:21:04;;;;;;;8.30;5.85;;;;;;;20.93;100.00;95681.09;5133177;27;20077;-54
2022/09/16 10:23:34;;;;;;;4.85;3.90;;;;;;;20.40;100.00;95690.59;5136961;27;20059;-55
2022/09/16 10:26:14;;;;;;;5.00;4.28;;;;;;;20.30;100.00;95685.81;5135421;27;20517;-54
2022/09/16 10:28:54;;;;;;;8.07;4.82;;;;;;;20.80;100.00;95671.38;5138192;27;20074;-52
2022/09/16 10:31:23;;;;;;;8.60;5.78;;;;;;;21.14;100.00;95664.47;5144291;27;20117;-51
2022/09/16 10:33:51;;;;;;;7.35;5.68;;;;;;;21.16;100.00;95664.22;5148853;27;20078;-51
2022/09/16 10:36:25;;;;;;;9.88;6.20;;;;;;;21.61;100.00;95653.81;5145681;27;20093;-57
2022/09/16 10:38:55;;;;;;;8.30;6.38;;;;;;;21.81;100.00;95656.94;5141450;27;20082;-55
2022/09/16 10:41:32;;;;;;;7.43;6.30;;;;;;;22.02;100.00;95647.47;5146003;27;20083;-57
2022/09/16 10:44:03;;;;;;;11.23;6.75;;;;;;;21.81;100.00;95650.75;5143670;27;20138;-57
2022/09/16 10:46:31;;;;;;;10.55;6.15;;;;;;;21.73;100.00;95651.94;5143684;27;20097;-55
2022/09/16 10:49:02;;;;;;;13.73;7.30;;;;;;;21.29;100.00;95646.06;5141811;27;20078;-57
2022/09/16 10:51:33;;;;;;;11.90;7.72;;;;;;;21.89;100.00;95639.66;5149138;27;20066;-55
2022/09/16 10:54:24;;;;;;;9.27;6.97;;;;;;;22.13;100.00;95643.13;5132796;27;20066;-55
2022/09/16 10:56:53;;;;;;;14.07;7.65;;;;;;;21.48;100.00;95649.50;5144119;27;20071;-54
2022/09/16 10:59:21;;;;;;;10.45;7.10;;;;;;;21.29;100.00;95647.91;5142463;27;20117;-59
2022/09/16 11:01:56;;;;;;;10.13;6.78;;;;;;;21.41;100.00;95645.31;5147211;27;20086;-55
2022/09/16 11:04:54;;;;;;;10.43;6.05;;;;;;;20.85;100.00;95644.69;5143716;27;20082;-58
2022/09/16 11:07:34;;;;;;;8.13;4.03;;;;;;;20.25;100.00;95650.84;5132351;27;20709;-55
2022/09/16 11:10:08;;;;;;;;;;;;;;;19.42;100.00;95665.47;5139404;27;20417;-55
2022/09/16 11:12:49;;;;;;;5.30;2.90;;;;;;;19.44;100.00;95665.25;5131570;27;19977;-56
2022/09/16 11:15:27;;;;;;;6.78;3.20;;;;;;;19.23;100.00;95671.00;5136449;27;20075;-59
2022/09/16 11:18:05;;;;;;;6.90;3.47;;;;;;;19.26;100.00;95666.03;5137067;27;20081;-58
2022/09/16 11:20:50;;;;;;;7.72;4.47;;;;;;;19.54;100.00;95670.09;5128918;27;20067;-58
2022/09/16 11:23:30;;;;;;;6.03;3.70;;;;;;;19.30;100.00;95667.22;5141487;27;20077;-64
2022/09/16 11:26:02;;;;;;;7.25;4.28;;;;;;;19.06;100.00;95674.19;5144485;27;20111;-58
2022/09/16 11:28:45;;;;;;;7.97;5.00;;;;;;;19.16;100.00;95679.06;5134937;27;20472;-59
2022/09/16 11:31:21;;;;;;;9.32;5.90;;;;;;;19.31;100.00;95687.59;5135784;27;20074;-60
2022/09/16 11:33:54;;;;;;;6.63;4.90;;;;;;;19.21;100.00;95687.25;5142849;27;20078;-62
2022/09/16 11:36:38;;;;;;;7.65;4.53;;;;;;;18.97;100.00;95691.53;5141542;27;20070;-61
2022/09/16 11:39:22;;;;;;;6.72;4.03;;;;;;;18.92;100.00;95694.84;5140141;27;20097;-61
2022/09/16 11:41:57;;;;;;;7.43;3.97;;;;;;;18.85;100.00;95693.25;5138804;27;20085;-61